Rolling Acres, Florida
Current Conditions -  °F | °C
As of 4:03 PM on Sunday 21 Dec 2014 (Local Time) from KBKV Reporting Station
Moderate Rain Moderate Rain  
Wind Chill: 68°   Ceiling: 6000
Heat Index: 68°   Visibility: 3mi
Dew Point: 66°   Wind: 5mph
Humidity: 93%   Direction: 50°NE
Pressure: 30.03"   Gusts: NA
Location:  28.4976°N, 82.2818°W
Report Text: KBKV 212103Z AUTO 05004KT 3SM RA BR FEW037 BKN060 OVC110 20/19 A3003 RMK AO2 LTG DSNT N AND NE AND SW TSE2057 P0002 T02000189
Loading
Personal Weather Stations






























Interactive Weather Map New forecast layout! Learn more

10-Day Weather Forecast

Advertisements
Track Severe Weather on mobile